Aviation Digital Data Service (ADDS)

Output produced by METARs form (0131 UTC 22 October 2014)
found at http://www.aviationweather.gov/adds/metars/
 
KILG 220051Z 34005KT 10SM SCT070 14/11 A2986 RMK AO2 SLP111 T01390111
KILG 212338Z 2200/2224 32006KT P6SM SCT050 
     FM220400 02008KT 6SM -RA SCT025 OVC040 
     FM220900 02010KT 4SM -RA BR BKN008 
     FM221600 02012G20KT 4SM RA BKN015 
     FM222300 35019KT P6SM -SHRA OVC025